Time;durP1;ratioP1;P1;durP2;ratioP2;P2;SDS_P1;SDS_P2;PMS_P1;PMS_P2;Temp;Humidity;BMP_temperature;BMP_pressure;BME280_temperature;BME280_humidity;BME280_pressure;Samples;Min_cycle;Max_cycle;Signal;HPM_P1;HPM_P2
2022/12/13 00:01:33;;;;;;;35.47;24.33;;;;;;;-3.91;79.69;101117.19;5084974;28;20035;-67
2022/12/13 00:04:03;;;;;;;36.20;25.73;;;;;;;-3.93;79.81;101121.50;5063250;28;20028;-68
2022/12/13 00:06:30;;;;;;;37.90;26.23;;;;;;;-3.88;80.24;101119.78;5086226;28;20081;-67
2022/12/13 00:08:58;;;;;;;41.60;26.73;;;;;;;-3.93;80.16;101121.50;5094735;28;20019;-67
2022/12/13 00:11:24;;;;;;;40.93;25.20;;;;;;;-3.95;79.79;101122.38;5068940;28;20031;-68
2022/12/13 00:13:50;;;;;;;35.23;25.20;;;;;;;-3.94;80.02;101119.78;5094300;28;20112;-68
2022/12/13 00:16:18;;;;;;;39.13;24.80;;;;;;;-3.93;79.71;101115.44;5084941;28;20123;-67
2022/12/13 00:18:48;;;;;;;46.23;27.97;;;;;;;-4.01;80.11;101109.38;5076865;28;20372;-68
2022/12/13 00:21:16;;;;;;;41.45;27.60;;;;;;;-3.99;79.87;101115.44;5095524;28;20089;-67
2022/12/13 00:23:42;;;;;;;41.80;26.27;;;;;;;-3.95;79.90;101114.56;5077442;28;20098;-68
2022/12/13 00:26:17;;;;;;;41.30;26.50;;;;;;;-3.96;79.78;101112.84;5077273;28;20035;-67
2022/12/13 00:28:43;;;;;;;38.13;26.67;;;;;;;-4.02;79.34;101110.25;5095021;28;20024;-68
2022/12/13 00:31:09;;;;;;;37.50;25.17;;;;;;;-4.09;79.19;101106.75;5095576;28;20124;-67
2022/12/13 00:33:38;;;;;;;39.47;26.90;;;;;;;-4.03;79.57;101113.69;5095102;28;20433;-67
2022/12/13 00:36:05;;;;;;;39.50;25.60;;;;;;;-4.16;79.20;101118.00;5076903;28;20028;-67
2022/12/13 00:38:30;;;;;;;41.47;25.90;;;;;;;-4.20;79.04;101119.75;5098654;28;20020;-67
2022/12/13 00:40:56;;;;;;;38.53;24.93;;;;;;;-4.18;79.36;101115.41;5098448;28;20034;-68
2022/12/13 00:43:22;;;;;;;36.10;26.17;;;;;;;-4.25;79.31;101112.81;5077329;28;20478;-67
2022/12/13 00:45:47;;;;;;;38.17;24.73;;;;;;;-4.28;79.43;101118.00;5078596;28;20050;-68
2022/12/13 00:48:13;;;;;;;40.67;25.03;;;;;;;-4.25;79.10;101120.59;5090984;28;20051;-68
2022/12/13 00:50:39;;;;;;;38.77;25.87;;;;;;;-4.23;79.54;101109.34;5094378;28;20034;-67
2022/12/13 00:53:04;;;;;;;35.30;24.93;;;;;;;-4.30;79.38;101110.19;5075881;28;20494;-68
2022/12/13 00:55:30;;;;;;;40.53;25.87;;;;;;;-4.31;80.10;101110.19;5094767;28;20023;-67
2022/12/13 00:57:56;;;;;;;36.57;24.93;;;;;;;-4.28;79.64;101094.63;5094481;28;20069;-68
2022/12/13 01:00:24;;;;;;;42.17;26.07;;;;;;;-4.33;79.37;101086.81;5094967;28;20024;-68
2022/12/13 01:02:51;;;;;;;37.83;25.87;;;;;;;-4.34;79.52;101103.28;5094062;28;20020;-67
2022/12/13 01:05:20;;;;;;;39.70;25.80;;;;;;;-4.40;79.59;101106.72;5094876;28;20456;-68
2022/12/13 01:07:46;;;;;;;38.00;25.40;;;;;;;-4.42;79.41;101103.25;5094789;28;20036;-67
2022/12/13 01:10:12;;;;;;;36.93;24.80;;;;;;;-4.43;79.42;101104.13;5043778;28;20021;-68
2022/12/13 01:12:38;;;;;;;37.27;25.80;;;;;;;-4.48;79.79;101111.00;5075778;28;20039;-67
2022/12/13 01:15:04;;;;;;;37.60;24.47;;;;;;;-4.55;79.57;101091.13;5094186;28;20352;-68
2022/12/13 01:17:34;;;;;;;32.60;24.50;;;;;;;-4.47;79.28;101097.19;5094214;28;20035;-68
2022/12/13 01:20:02;;;;;;;38.15;25.27;;;;;;;-4.49;79.46;101098.06;5094151;28;20020;-67
2022/12/13 01:22:28;;;;;;;37.43;24.60;;;;;;;-4.45;79.22;101094.59;5075935;28;20031;-67
2022/12/13 01:24:53;;;;;;;35.47;24.83;;;;;;;-4.43;79.44;101098.91;5095954;28;20039;-68
2022/12/13 01:27:19;;;;;;;34.70;24.07;;;;;;;-4.46;78.85;101095.47;5047415;28;20037;-67
2022/12/13 01:29:44;;;;;;;34.70;24.50;;;;;;;-4.49;78.94;101087.66;5031681;28;20130;-67
2022/12/13 01:32:10;;;;;;;32.83;23.17;;;;;;;-4.47;78.68;101091.09;5066610;28;20045;-67
2022/12/13 01:34:36;;;;;;;38.13;24.83;;;;;;;-4.49;78.65;101091.13;5055907;28;20380;-68
2022/12/13 01:37:02;;;;;;;36.30;26.10;;;;;;;-4.52;78.98;101098.03;5093797;28;20040;-67
2022/12/13 01:39:28;;;;;;;37.80;24.27;;;;;;;-4.52;79.11;101101.50;5093913;28;20031;-68
2022/12/13 01:42:02;;;;;;;36.97;23.87;;;;;;;-4.55;79.19;101106.69;5094175;28;20084;-68
2022/12/13 01:44:56;;;;;;;37.97;24.40;;;;;;;-4.50;79.62;101107.56;5094724;28;20395;-68
2022/12/13 01:47:46;;;;;;;34.80;23.50;;;;;;;-4.52;79.13;101111.88;5075588;28;20080;-67
2022/12/13 01:50:15;;;;;;;39.63;23.60;;;;;;;-4.59;79.19;101111.00;5081740;28;20039;-67
2022/12/13 01:52:41;;;;;;;38.38;23.77;;;;;;;-4.58;79.42;101104.94;5075618;28;20548;-67
2022/12/13 01:55:08;;;;;;;34.83;23.77;;;;;;;-4.64;78.89;101096.28;5082318;28;20042;-67
2022/12/13 01:57:40;;;;;;;41.37;23.73;;;;;;;-4.62;79.10;101108.41;5097298;28;20059;-67
2022/12/13 02:00:09;;;;;;;36.17;23.90;;;;;;;-4.60;78.75;101106.66;5093800;28;20340;-67
2022/12/13 02:02:35;;;;;;;38.63;24.77;;;;;;;-4.63;78.68;101105.78;5075222;28;20024;-67
2022/12/13 02:05:16;;;;;;;34.33;23.30;;;;;;;-4.65;78.66;101103.16;5093372;28;20490;-67
2022/12/13 02:07:43;;;;;;;36.40;23.67;;;;;;;-4.74;79.13;101092.75;5093827;28;20390;-67
2022/12/13 02:10:11;;;;;;;34.93;24.10;;;;;;;-4.71;79.26;101097.09;5075668;28;20028;-67
2022/12/13 02:12:39;;;;;;;36.83;23.63;;;;;;;-4.69;78.93;101098.84;5075145;28;20092;-67
2022/12/13 02:15:10;;;;;;;36.00;23.30;;;;;;;-4.74;78.74;101097.97;5093058;28;20031;-67
2022/12/13 02:18:03;;;;;;;34.73;22.47;;;;;;;-4.71;79.00;101097.09;5092666;28;20475;-68
2022/12/13 02:20:37;;;;;;;38.73;25.40;;;;;;;-4.78;78.76;101091.03;5093076;28;20020;-66
2022/12/13 02:23:29;;;;;;;41.90;25.27;;;;;;;-4.77;79.03;101103.13;5092942;28;20024;-68
2022/12/13 02:26:14;;;;;;;42.13;24.37;;;;;;;-4.75;78.83;101101.41;5092973;28;20032;-68
2022/12/13 02:28:39;;;;;;;38.83;23.43;;;;;;;-4.80;78.98;101098.78;5092577;28;20039;-68
2022/12/13 02:31:13;;;;;;;36.33;25.53;;;;;;;-4.78;78.97;101105.75;5074967;28;20036;-68
2022/12/13 02:33:48;;;;;;;41.07;26.30;;;;;;;-4.82;78.83;101095.34;5092240;28;20418;-67
2022/12/13 02:36:34;;;;;;;37.27;23.73;;;;;;;-4.80;79.04;101092.75;5092598;28;20059;-68
2022/12/13 02:39:07;;;;;;;35.23;23.27;;;;;;;-4.82;78.67;101090.16;5092837;28;20019;-67
2022/12/13 02:41:48;;;;;;;37.53;24.27;;;;;;;-4.83;79.34;101091.00;5093096;28;20111;-67
2022/12/13 02:44:33;;;;;;;39.73;24.03;;;;;;;-4.82;79.59;101092.75;5073962;28;20024;-67
2022/12/13 02:47:05;;;;;;;37.90;24.27;;;;;;;-4.88;79.05;101086.66;5095613;28;20032;-67
2022/12/13 02:49:38;;;;;;;37.97;23.23;;;;;;;-4.84;78.81;101081.50;5092404;28;20085;-67
2022/12/13 02:52:09;;;;;;;40.07;24.43;;;;;;;-4.86;79.72;101078.03;5096911;28;20032;-67
2022/12/13 02:54:36;;;;;;;36.83;24.97;;;;;;;-4.86;79.65;101077.16;5103450;28;20040;-68
2022/12/13 02:57:02;;;;;;;36.70;24.73;;;;;;;-4.87;80.00;101070.25;5081816;28;20024;-67
2022/12/13 02:59:38;;;;;;;39.60;24.93;;;;;;;-4.89;80.45;101067.63;5094922;28;20032;-68
2022/12/13 03:02:19;;;;;;;41.83;24.73;;;;;;;-4.84;80.44;101070.25;5091937;28;20048;-68
2022/12/13 03:08:14;;;;;;;40.20;23.93;;;;;;;-4.87;80.06;101057.28;5092104;28;20093;-67
2022/12/13 03:10:51;;;;;;;35.83;24.73;;;;;;;-4.89;80.24;101059.84;5072133;28;20029;-67
2022/12/13 03:13:59;;;;;;;37.83;24.27;;;;;;;-4.81;80.46;101065.09;5071735;28;20446;-68
2022/12/13 03:16:33;;;;;;;36.87;25.00;;;;;;;-4.87;80.80;101060.75;5094571;28;20097;-68
2022/12/13 03:19:01;;;;;;;41.87;25.00;;;;;;;-4.85;80.94;101064.22;5090129;28;20035;-67
2022/12/13 03:21:27;;;;;;;38.73;25.87;;;;;;;-4.84;80.61;101070.25;5095874;28;20078;-68
2022/12/13 03:23:53;;;;;;;36.93;25.20;;;;;;;-4.88;80.74;101066.81;5091168;28;20395;-67
2022/12/13 03:26:22;;;;;;;43.93;25.47;;;;;;;-4.92;81.99;101066.78;5091992;28;20028;-67
2022/12/13 03:28:48;;;;;;;43.20;25.87;;;;;;;-4.84;82.75;101062.47;5090512;28;20032;-67
2022/12/13 03:31:15;;;;;;;42.33;27.43;;;;;;;-4.78;83.62;101069.41;5057315;28;20472;-67
2022/12/13 03:33:45;;;;;;;46.47;28.17;;;;;;;-4.69;84.61;101077.22;5091917;28;20036;-67
2022/12/13 03:36:12;;;;;;;41.17;27.30;;;;;;;-4.65;85.22;101065.97;5091560;28;20036;-67
2022/12/13 03:38:41;;;;;;;45.60;27.97;;;;;;;-4.60;85.21;101069.47;5090963;28;20524;-67
2022/12/13 03:41:12;;;;;;;44.33;26.43;;;;;;;-4.64;84.18;101065.16;5076896;28;20031;-68
2022/12/13 03:43:41;;;;;;;45.90;28.63;;;;;;;-4.67;84.14;101065.13;5090883;28;20039;-67
2022/12/13 03:46:07;;;;;;;45.30;27.47;;;;;;;-4.73;84.35;101058.19;5090887;28;20748;-67
2022/12/13 03:48:33;;;;;;;42.97;26.63;;;;;;;-4.70;83.79;101063.41;5091096;28;20046;-67
2022/12/13 03:50:59;;;;;;;42.57;27.40;;;;;;;-4.70;84.00;101054.75;5091068;28;20097;-67
2022/12/13 03:53:27;;;;;;;46.77;27.30;;;;;;;-4.67;84.62;101063.41;5073124;28;20491;-67
2022/12/13 03:55:53;;;;;;;44.50;26.83;;;;;;;-4.71;83.91;101058.19;5090977;28;20027;-67
2022/12/13 03:58:18;;;;;;;45.90;27.10;;;;;;;-4.69;84.10;101056.47;5072596;28;20036;-68
2022/12/13 04:00:44;;;;;;;44.37;27.53;;;;;;;-4.66;85.21;101051.28;5072630;28;20429;-68
2022/12/13 04:03:10;;;;;;;44.40;28.27;;;;;;;-4.59;85.63;101053.91;5091095;28;20027;-68
2022/12/13 04:05:37;;;;;;;44.13;28.63;;;;;;;-4.57;86.05;101048.72;5090785;28;20116;-67
2022/12/13 04:08:03;;;;;;;46.97;27.63;;;;;;;-4.60;85.49;101054.75;5072814;28;20441;-67
2022/12/13 04:10:31;;;;;;;42.63;27.60;;;;;;;-4.58;85.55;101049.59;5072894;28;20039;-67
2022/12/13 04:15:47;;;;;;;46.30;28.23;;;;;;;-4.61;84.68;101053.03;5076220;28;20039;-67
2022/12/13 04:18:17;;;;;;;40.03;25.50;;;;;;;-4.67;84.78;101042.66;5091529;28;20039;-67
2022/12/13 04:20:43;;;;;;;45.42;26.90;;;;;;;-4.57;84.99;101035.75;5090831;28;20102;-67
2022/12/13 04:23:09;;;;;;;39.97;26.10;;;;;;;-4.55;85.32;101047.00;5072249;28;20024;-67
2022/12/13 04:25:35;;;;;;;43.17;28.80;;;;;;;-4.55;85.76;101041.81;5090824;28;20066;-68
2022/12/13 04:28:00;;;;;;;45.80;28.37;;;;;;;-4.49;86.20;101038.34;5072807;28;20497;-67
2022/12/13 04:30:26;;;;;;;42.83;28.17;;;;;;;-4.51;85.82;101040.06;5076731;28;20028;-67
2022/12/13 04:32:52;;;;;;;40.70;27.93;;;;;;;-4.57;85.44;101039.19;5038996;28;20024;-68
2022/12/13 04:35:17;;;;;;;41.63;27.80;;;;;;;-4.52;85.74;101038.34;5067874;28;20364;-67
2022/12/13 04:37:43;;;;;;;40.57;26.00;;;;;;;-4.59;84.92;101040.03;5073458;28;20028;-67
2022/12/13 04:40:09;;;;;;;41.27;26.97;;;;;;;-4.63;84.79;101038.31;5091132;28;20036;-67
2022/12/13 04:42:35;;;;;;;40.83;26.30;;;;;;;-4.61;85.41;101036.59;5052172;28;20033;-67
2022/12/13 04:45:05;;;;;;;39.07;25.63;;;;;;;-4.66;85.60;101030.53;5072770;28;20031;-67
2022/12/13 04:47:32;;;;;;;43.45;28.30;;;;;;;-4.60;85.47;101033.13;5073194;28;20103;-68
2022/12/13 04:50:00;;;;;;;37.23;25.43;;;;;;;-4.63;85.00;101031.41;5090947;28;20052;-68
2022/12/13 04:52:26;;;;;;;40.70;27.03;;;;;;;-4.73;84.38;101034.84;5090629;28;20372;-67
2022/12/13 04:54:51;;;;;;;38.03;25.27;;;;;;;-4.73;84.66;101031.41;5056482;28;20123;-67
2022/12/13 04:57:17;;;;;;;37.83;25.57;;;;;;;-4.81;84.08;101027.03;5072439;28;20042;-67
2022/12/13 04:59:45;;;;;;;39.63;26.37;;;;;;;-4.88;83.43;101030.50;5075862;28;20464;-67
2022/12/13 05:02:11;;;;;;;41.07;27.40;;;;;;;-4.91;83.61;101020.09;5086579;28;20027;-67
2022/12/13 05:04:37;;;;;;;42.47;26.80;;;;;;;-4.93;83.66;101034.78;5094596;28;20099;-67
2022/12/13 05:07:03;;;;;;;41.40;26.63;;;;;;;-4.95;83.66;101017.47;5059458;28;20061;-67
2022/12/13 05:09:29;;;;;;;37.10;25.47;;;;;;;-4.96;83.38;101023.53;5076622;28;20463;-67
2022/12/13 05:11:57;;;;;;;39.43;26.77;;;;;;;-4.98;83.84;101033.03;5059026;28;20115;-67
2022/12/13 05:14:24;;;;;;;40.13;27.43;;;;;;;-5.00;83.67;101035.59;5094574;28;20024;-67
2022/12/13 05:16:52;;;;;;;38.17;24.30;;;;;;;-5.02;83.45;101029.56;5094496;28;20111;-67
2022/12/13 05:19:18;;;;;;;42.17;27.50;;;;;;;-5.05;83.63;101026.97;5094776;28;20101;-67
2022/12/13 05:21:44;;;;;;;39.23;27.80;;;;;;;-5.08;83.65;101022.63;5076198;28;20455;-67
2022/12/13 05:24:09;;;;;;;45.23;26.57;;;;;;;-5.00;84.33;101025.22;5076356;28;20498;-67
2022/12/13 05:26:35;;;;;;;40.83;26.30;;;;;;;-5.03;84.06;101023.53;5055811;28;20047;-67
2022/12/13 05:29:00;;;;;;;41.70;26.90;;;;;;;-5.01;84.22;101013.13;5073639;28;20077;-67
2022/12/13 05:31:26;;;;;;;42.57;26.83;;;;;;;-5.04;84.14;101015.72;5056095;28;20040;-67
2022/12/13 05:33:52;;;;;;;42.07;28.10;;;;;;;-5.00;85.32;101012.28;5057788;28;20037;-67
2022/12/13 05:36:18;;;;;;;43.33;28.13;;;;;;;-4.96;85.49;101011.44;5076257;28;20036;-67
2022/12/13 05:38:46;;;;;;;42.00;28.77;;;;;;;-4.84;86.81;101008.00;5076290;28;20024;-67
2022/12/13 05:41:18;;;;;;;43.43;27.63;;;;;;;-4.83;86.40;101000.22;5075906;28;20048;-67
2022/12/13 05:43:44;;;;;;;44.97;27.77;;;;;;;-4.77;86.66;101006.28;5075803;28;20028;-67
2022/12/13 05:46:11;;;;;;;46.07;27.97;;;;;;;-4.87;86.94;101001.09;5075512;28;20094;-67
2022/12/13 05:48:37;;;;;;;45.63;28.93;;;;;;;-5.04;86.20;100989.78;5093644;28;20083;-67
2022/12/13 05:51:02;;;;;;;41.80;28.07;;;;;;;-4.85;86.66;101001.09;5093464;28;20062;-67
2022/12/13 05:53:27;;;;;;;46.77;28.53;;;;;;;-4.82;87.16;101001.09;5058789;28;20040;-67
2022/12/13 05:55:57;;;;;;;46.77;29.37;;;;;;;-4.77;87.25;100999.38;5075459;28;20032;-68
2022/12/13 05:58:23;;;;;;;47.97;29.65;;;;;;;-4.80;86.69;101001.97;5058245;28;20040;-67
2022/12/13 06:00:49;;;;;;;45.63;29.73;;;;;;;-4.76;86.50;100998.53;5077538;28;20034;-67
2022/12/13 06:03:15;;;;;;;48.50;28.43;;;;;;;-4.80;86.13;101004.56;5069219;28;20028;-67
2022/12/13 06:05:42;;;;;;;41.57;27.77;;;;;;;-4.83;86.03;101012.31;5073560;28;20028;-67
2022/12/13 06:08:08;;;;;;;37.03;26.07;;;;;;;-4.84;85.61;101013.19;5087706;28;20024;-67
2022/12/13 06:10:33;;;;;;;38.93;27.60;;;;;;;-4.89;85.66;101010.59;5072180;28;20027;-67
2022/12/13 06:12:59;;;;;;;42.40;28.47;;;;;;;-4.91;86.16;101014.03;5091159;28;20025;-67
2022/12/13 06:15:24;;;;;;;45.37;27.97;;;;;;;-4.98;85.26;101012.28;5057325;28;20518;-67
2022/12/13 06:17:52;;;;;;;44.40;27.90;;;;;;;-4.98;85.10;101013.16;5074929;28;20039;-67
2022/12/13 06:20:18;;;;;;;41.33;28.20;;;;;;;-4.97;85.30;101009.72;5093494;28;20454;-67
2022/12/13 06:22:45;;;;;;;46.13;29.90;;;;;;;-5.00;85.87;101009.69;5092938;28;20047;-67
2022/12/13 06:25:11;;;;;;;42.43;27.70;;;;;;;-4.99;85.43;101008.84;5092870;28;20360;-67
2022/12/13 06:27:37;;;;;;;45.30;28.87;;;;;;;-4.96;86.29;101015.75;5092110;28;20043;-67
2022/12/13 06:30:02;;;;;;;46.63;28.53;;;;;;;-4.89;86.76;101012.31;5093145;28;20490;-67
2022/12/13 06:32:28;;;;;;;44.20;28.80;;;;;;;-4.86;87.27;101010.59;5093075;28;20118;-67
2022/12/13 06:34:54;;;;;;;48.67;28.73;;;;;;;-4.83;87.71;101008.00;5093196;28;20024;-67
2022/12/13 06:37:19;;;;;;;48.07;29.13;;;;;;;-4.78;87.16;101017.53;5074532;28;20036;-67
2022/12/13 06:39:46;;;;;;;43.80;28.97;;;;;;;-4.82;86.61;101009.75;5093099;28;20028;-67
2022/12/13 06:42:17;;;;;;;42.30;28.40;;;;;;;-4.85;86.20;101020.13;5074357;28;20035;-67
2022/12/13 06:44:42;;;;;;;44.53;30.07;;;;;;;-4.84;86.16;101019.25;5093032;28;20021;-67
2022/12/13 06:47:08;;;;;;;48.80;30.87;;;;;;;-4.85;87.08;101017.53;5072542;28;20376;-68
2022/12/13 06:49:34;;;;;;;47.27;29.83;;;;;;;-4.91;86.07;101012.31;5065512;28;20036;-67
2022/12/13 06:51:59;;;;;;;52.77;32.60;;;;;;;-4.88;86.74;101014.94;5092209;28;20483;-67
2022/12/13 06:54:25;;;;;;;48.83;30.63;;;;;;;-4.95;86.37;101009.72;5091750;28;20479;-67
2022/12/13 06:56:50;;;;;;;49.07;31.40;;;;;;;-4.90;87.25;101002.81;5073752;28;20103;-67
2022/12/13 06:59:16;;;;;;;43.63;30.17;;;;;;;-4.94;86.44;101001.94;5073176;28;20035;-67
2022/12/13 07:01:42;;;;;;;49.43;31.77;;;;;;;-4.92;87.01;101009.72;5092688;28;20031;-67
2022/12/13 07:04:10;;;;;;;55.30;33.90;;;;;;;-4.96;86.67;101015.75;5077242;28;20494;-67
2022/12/13 07:06:36;;;;;;;51.10;32.13;;;;;;;-4.92;87.04;101012.31;5090990;28;20019;-67
2022/12/13 07:09:01;;;;;;;51.57;32.37;;;;;;;-4.94;86.68;101003.66;5073963;28;20035;-67
2022/12/13 07:11:30;;;;;;;52.83;31.87;;;;;;;-4.97;86.17;101006.22;5094425;28;20475;-67
2022/12/13 07:13:55;;;;;;;54.20;33.13;;;;;;;-5.00;86.85;101001.03;5073611;28;20024;-67
2022/12/13 07:16:22;;;;;;;48.17;30.47;;;;;;;-4.97;86.41;101006.22;5092194;28;20023;-67
2022/12/13 07:18:56;;;;;;;51.87;32.57;;;;;;;-5.00;86.84;101012.28;5106110;28;20027;-67
2022/12/13 07:21:23;;;;;;;49.93;31.23;;;;;;;-5.04;86.42;101002.75;5093921;28;20026;-67
2022/12/13 07:23:49;;;;;;;55.97;34.03;;;;;;;-4.93;87.43;101001.06;5057074;28;20502;-68
2022/12/13 07:26:16;;;;;;;49.17;31.10;;;;;;;-4.96;86.80;100992.41;5092467;28;20024;-67
2022/12/13 07:28:42;;;;;;;51.87;32.40;;;;;;;-4.82;87.43;101001.09;5074086;28;20085;-67
2022/12/13 07:31:11;;;;;;;55.27;33.33;;;;;;;-4.84;87.69;101001.09;5073357;28;20024;-67
2022/12/13 07:33:36;;;;;;;52.73;33.30;;;;;;;-4.81;88.01;101005.44;5092941;28;20032;-67
2022/12/13 07:36:05;;;;;;;52.83;34.23;;;;;;;-4.74;88.40;101001.09;5057333;28;20028;-67
2022/12/13 07:38:32;;;;;;;55.83;33.60;;;;;;;-4.68;87.79;101006.31;5073545;28;20020;-67
2022/12/13 07:40:57;;;;;;;55.33;34.83;;;;;;;-4.67;88.39;101002.88;5093969;28;20055;-68
2022/12/13 07:43:24;;;;;;;57.33;35.13;;;;;;;-4.64;88.47;101008.06;5072760;28;20123;-67
2022/12/13 07:45:50;;;;;;;55.27;34.30;;;;;;;-4.63;88.29;101007.19;5095219;28;20051;-67
2022/12/13 07:48:15;;;;;;;55.40;34.23;;;;;;;-4.64;88.49;101003.72;5090978;28;20016;-66
2022/12/13 07:50:41;;;;;;;59.27;34.93;;;;;;;-4.67;87.90;101006.31;5091224;28;20441;-67
2022/12/13 07:53:07;;;;;;;60.97;36.00;;;;;;;-4.68;88.52;101009.75;5072788;28;20024;-67
2022/12/13 07:55:34;;;;;;;58.13;36.40;;;;;;;-4.62;88.81;101017.59;5073843;28;20032;-67
2022/12/13 07:58:17;;;;;;;55.53;34.77;;;;;;;-4.57;88.40;101025.34;5091228;28;20031;-67
2022/12/13 08:00:45;;;;;;;55.40;36.40;;;;;;;-4.55;88.46;101020.19;5092239;28;20039;-67
2022/12/13 08:03:11;;;;;;;60.27;35.43;;;;;;;-4.55;88.51;101023.63;5091706;28;20024;-67
2022/12/13 08:05:37;;;;;;;59.67;36.67;;;;;;;-4.56;88.32;101016.69;5090939;28;20039;-67
2022/12/13 08:08:07;;;;;;;58.50;36.53;;;;;;;-4.53;88.77;101015.84;5091237;28;20030;-67
2022/12/13 08:10:33;;;;;;;57.63;36.23;;;;;;;-4.56;88.67;101003.72;5088425;28;20387;-67
2022/12/13 08:13:01;;;;;;;56.17;36.30;;;;;;;-4.48;89.09;101011.53;5081801;28;20032;-67
2022/12/13 08:15:27;;;;;;;57.60;36.73;;;;;;;-4.46;88.94;101018.47;5090489;28;20035;-67
2022/12/13 08:17:59;;;;;;;58.27;36.93;;;;;;;-4.47;88.80;101011.53;5090852;28;20051;-67
2022/12/13 08:20:25;;;;;;;63.77;38.77;;;;;;;-4.49;88.92;101018.44;5090336;28;20024;-67
2022/12/13 08:22:55;;;;;;;60.67;37.43;;;;;;;-4.41;88.84;101021.03;5090500;28;20059;-67
2022/12/13 08:25:21;;;;;;;60.80;38.50;;;;;;;-4.40;89.01;101018.47;5094020;28;20491;-67
2022/12/13 08:27:48;;;;;;;61.40;37.13;;;;;;;-4.43;89.04;101023.66;5077272;28;20043;-67
2022/12/13 08:30:15;;;;;;;59.23;37.73;;;;;;;-4.38;89.48;101028.84;5054727;28;20028;-67
2022/12/13 08:32:43;;;;;;;62.07;37.23;;;;;;;-4.32;89.04;101031.47;5071989;28;20498;-67
2022/12/13 08:35:08;;;;;;;60.53;39.10;;;;;;;-4.29;89.34;101023.66;5093288;28;20364;-67
2022/12/13 08:37:34;;;;;;;61.67;38.37;;;;;;;-4.29;89.27;101025.38;5094785;28;20043;-67
2022/12/13 08:40:00;;;;;;;65.13;38.50;;;;;;;-4.21;89.10;101027.09;5059862;28;20028;-67
2022/12/13 08:42:26;;;;;;;59.00;38.80;;;;;;;-4.18;88.85;101026.25;5093955;28;20028;-67
2022/12/13 08:44:52;;;;;;;59.97;37.73;;;;;;;-4.14;88.54;101025.41;5075810;28;20040;-67
2022/12/13 08:47:25;;;;;;;59.80;38.50;;;;;;;-4.06;89.14;101030.56;5076026;28;20470;-67
2022/12/13 08:49:55;;;;;;;64.37;39.03;;;;;;;-4.06;88.76;101030.56;5094009;28;20048;-67
2022/12/13 08:52:22;;;;;;;58.88;36.33;;;;;;;-4.02;88.71;101032.31;5093985;28;20398;-67
2022/12/13 08:54:48;;;;;;;59.93;38.90;;;;;;;-4.01;88.63;101037.50;5094249;28;20024;-67
2022/12/13 08:57:13;;;;;;;61.70;37.17;;;;;;;-3.97;88.78;101041.84;5094096;28;20638;-67
2022/12/13 08:59:39;;;;;;;61.97;37.90;;;;;;;-3.93;88.93;101047.91;5075873;28;20107;-67
2022/12/13 09:02:05;;;;;;;66.87;40.37;;;;;;;-3.89;88.46;101055.69;5072797;28;20020;-67
2022/12/13 09:04:30;;;;;;;57.10;37.40;;;;;;;-3.85;88.78;101043.56;5048686;28;20042;-67
2022/12/13 09:06:56;;;;;;;63.03;39.53;;;;;;;-3.77;88.49;101046.16;5074811;28;20126;-67
2022/12/13 09:09:22;;;;;;;59.90;38.90;;;;;;;-3.76;88.42;101040.97;5074065;28;20036;-67
2022/12/13 09:11:47;;;;;;;63.50;40.43;;;;;;;-3.71;88.35;101046.13;5075679;28;20082;-67
2022/12/13 09:14:13;;;;;;;57.57;38.60;;;;;;;-3.65;87.92;101035.72;5100718;28;20540;-67
2022/12/13 09:16:39;;;;;;;55.90;36.80;;;;;;;-3.66;88.01;101041.81;5095437;28;20028;-67
2022/12/13 09:19:04;;;;;;;59.00;39.10;;;;;;;-3.65;87.70;101038.31;5056239;28;20100;-67
2022/12/13 09:21:30;;;;;;;54.27;36.57;;;;;;;-3.70;87.52;101040.09;5088295;28;20372;-67
2022/12/13 09:23:57;;;;;;;56.70;38.20;;;;;;;-3.70;87.82;101040.94;5075497;28;20036;-67
2022/12/13 09:26:22;;;;;;;55.97;38.67;;;;;;;-3.67;88.19;101040.09;5075939;28;20024;-67
2022/12/13 09:28:48;;;;;;;58.30;39.03;;;;;;;-3.63;87.34;101047.00;5092926;28;20372;-67
2022/12/13 09:31:16;;;;;;;62.03;39.43;;;;;;;-3.59;87.56;101040.91;5072162;28;20035;-67
2022/12/13 09:33:42;;;;;;;64.43;39.40;;;;;;;-3.54;87.00;101038.31;5078232;28;20028;-67
2022/12/13 09:36:11;;;;;;;57.40;39.07;;;;;;;-3.51;86.84;101046.97;5074874;28;20034;-67
2022/12/13 09:38:38;;;;;;;60.63;39.00;;;;;;;-3.45;86.96;101054.75;5093628;28;20043;-67
2022/12/13 09:41:31;;;;;;;57.73;39.33;;;;;;;-3.37;87.32;101046.94;5092680;28;20020;-67
2022/12/13 09:44:04;;;;;;;58.57;40.50;;;;;;;-3.35;86.66;101034.81;5076249;28;20040;-67
2022/12/13 09:46:37;;;;;;;59.00;39.40;;;;;;;-3.16;86.56;101039.94;5092623;28;20026;-67
2022/12/13 09:49:15;;;;;;;63.93;38.70;;;;;;;-3.15;86.61;101037.31;5092472;28;20040;-66
2022/12/13 09:51:40;;;;;;;62.23;40.40;;;;;;;-3.09;85.46;101047.72;5099383;28;20064;-67
2022/12/13 09:54:06;;;;;;;60.97;39.93;;;;;;;-3.04;85.88;101039.88;5069340;28;20814;-67
2022/12/13 09:56:32;;;;;;;59.67;39.53;;;;;;;-2.93;85.09;101039.84;5075215;28;20030;-68
2022/12/13 09:58:58;;;;;;;60.83;39.90;;;;;;;-2.91;84.64;101043.28;5093105;28;20467;-68
2022/12/13 10:01:24;;;;;;;60.37;40.73;;;;;;;-2.80;84.64;101044.09;5054312;28;20032;-67
2022/12/13 10:03:54;;;;;;;61.23;41.30;;;;;;;-2.54;84.54;101033.56;5080154;28;20471;-68
2022/12/13 10:06:23;;;;;;;63.47;42.17;;;;;;;-2.37;83.51;101034.31;5079434;28;20028;-67
2022/12/13 10:08:52;;;;;;;63.43;43.00;;;;;;;-2.38;82.64;101029.09;5092802;28;20032;-67
2022/12/13 10:11:19;;;;;;;63.10;43.30;;;;;;;-2.48;83.39;101014.41;5092848;28;20032;-67
2022/12/13 10:13:53;;;;;;;65.20;46.00;;;;;;;-2.25;83.85;101015.13;5092148;28;20504;-67
2022/12/13 10:16:30;;;;;;;60.63;41.37;;;;;;;-2.23;83.00;101015.97;5091374;28;20024;-67
2022/12/13 10:18:56;;;;;;;60.87;41.27;;;;;;;-2.16;82.39;101009.84;5069544;28;20129;-67
2022/12/13 10:21:38;;;;;;;63.63;43.43;;;;;;;-1.97;81.75;101017.47;5087419;28;20031;-67
2022/12/13 10:24:13;;;;;;;64.03;41.63;;;;;;;-1.98;81.90;101015.75;5092627;28;20054;-67
2022/12/13 10:26:38;;;;;;;58.20;39.67;;;;;;;-2.05;80.72;101014.97;5092897;28;20024;-67
2022/12/13 10:29:05;;;;;;;57.03;40.57;;;;;;;-1.97;81.16;101009.66;5075150;28;20024;-67
2022/12/13 10:31:41;;;;;;;56.60;39.30;;;;;;;-1.68;80.14;101001.56;5092587;28;20052;-67
2022/12/13 10:34:23;;;;;;;60.27;39.77;;;;;;;-1.31;80.18;100995.97;5092438;28;20024;-67
2022/12/13 10:36:50;;;;;;;55.40;37.93;;;;;;;-1.09;79.03;100991.31;5092509;28;20038;-67
2022/12/13 10:39:35;;;;;;;57.30;39.27;;;;;;;-0.74;76.61;100988.22;5091276;28;20039;-68
2022/12/13 10:42:04;;;;;;;54.47;39.33;;;;;;;-0.55;75.11;100992.31;5090350;28;20035;-67
2022/12/13 10:44:30;;;;;;;56.80;40.27;;;;;;;-0.52;75.15;100996.63;5092217;28;20385;-68
2022/12/13 10:47:04;;;;;;;52.53;39.27;;;;;;;-0.31;75.73;100988.47;5091403;28;20020;-67
2022/12/13 10:49:39;;;;;;;46.43;35.90;;;;;;;-0.08;74.05;100989.84;5090841;28;20047;-67
2022/12/13 10:52:06;;;;;;;49.80;37.20;;;;;;;0.21;72.18;100984.09;5092043;28;20070;-67
2022/12/13 10:54:35;;;;;;;49.05;36.40;;;;;;;0.16;71.48;100975.47;5074267;28;20030;-68
2022/12/13 10:57:01;;;;;;;48.60;35.47;;;;;;;0.30;70.70;100975.22;5078258;28;20103;-67
2022/12/13 10:59:34;;;;;;;42.85;33.80;;;;;;;0.51;70.42;100966.94;5073425;28;20039;-67
2022/12/13 11:02:02;;;;;;;46.83;35.05;;;;;;;0.38;70.26;100957.59;5072928;28;20429;-67
2022/12/13 11:04:33;;;;;;;46.55;34.35;;;;;;;0.46;70.12;100950.47;5073648;28;20391;-67
2022/12/13 11:07:28;;;;;;;48.13;34.88;;;;;;;0.43;70.99;100956.63;5073470;28;20024;-67
2022/12/13 11:09:53;;;;;;;48.25;36.08;;;;;;;0.25;71.58;100951.75;5090243;28;20095;-68
2022/12/13 11:12:26;;;;;;;48.65;34.58;;;;;;;0.31;71.61;100956.00;5091013;28;20119;-68
2022/12/13 11:15:06;;;;;;;46.35;34.72;;;;;;;0.51;70.78;100950.41;5092638;28;20032;-67
2022/12/13 11:17:44;;;;;;;47.97;34.85;;;;;;;0.77;70.16;100948.09;5091944;28;20666;-67
2022/12/13 11:20:22;;;;;;;46.20;34.40;;;;;;;0.63;69.63;100939.69;5092494;28;20027;-68
2022/12/13 11:22:57;;;;;;;47.30;33.73;;;;;;;0.53;69.23;100941.63;5091386;28;20052;-67